Time,TemperatureF,DewpointF,PressureIn,WindDirection,WindDirectionDegrees,WindSpeedMPH,WindSpeedGustMPH,Humidity,HourlyPrecipIn,Conditions,Clouds,dailyrainin,SoftwareType,DateUTC
2013-02-21 01:01:00,25.0,25.0,-100.00,ESE,109,0.0,1.0,100,-99.99,,,-99.99,,2013-02-21 09:01:00,
2013-02-21 01:10:00,25.0,25.0,-100.00,SSE,158,1.0,2.0,100,-99.99,,,-99.99,,2013-02-21 09:10:00,
2013-02-21 02:01:00,25.0,25.0,-100.00,SSE,158,1.0,2.0,100,-99.99,,,-99.99,,2013-02-21 10:01:00,
2013-02-21 03:01:00,24.0,24.0,-100.00,East,90,0.0,1.0,100,-99.99,,,-99.99,,2013-02-21 11:01:00,
2013-02-21 03:10:00,24.0,24.0,-100.00,South,189,0.0,1.0,100,-99.99,,,-99.99,,2013-02-21 11:10:00,
2013-02-21 03:11:00,24.0,24.0,-100.00,East,90,0.0,1.0,100,-99.99,,,-99.99,,2013-02-21 11:11:00,
2013-02-21 04:01:00,24.0,24.0,-100.00,South,189,0.0,1.0,100,-99.99,,,-99.99,,2013-02-21 12:01:00,
2013-02-21 05:02:00,25.0,-99.9,-100.00,West,260,0.0,1.0,-999,-99.99,,,-99.99,,2013-02-21 13:02:00,
2013-02-21 05:12:00,25.0,-99.9,-100.00,West,260,0.0,1.0,-999,-99.99,,,-99.99,,2013-02-21 13:12:00,
2013-02-21 06:02:00,25.0,-99.9,-100.00,South,172,0.0,1.0,-999,-99.99,,,-99.99,,2013-02-21 14:02:00,
2013-02-21 06:11:00,25.0,-99.9,-100.00,South,172,0.0,1.0,-999,-99.99,,,-99.99,,2013-02-21 14:11:00,
2013-02-21 07:02:00,26.0,-99.9,-100.00,SE,124,0.0,1.0,-999,-99.99,,,-99.99,,2013-02-21 15:02:00,
2013-02-21 07:12:00,26.0,-99.9,-100.00,SE,124,0.0,1.0,-999,-99.99,,,-99.99,,2013-02-21 15:12:00,
2013-02-21 08:02:00,26.0,-99.9,-100.00,South,182,0.0,1.0,-999,-99.99,,,-99.99,,2013-02-21 16:02:00,
2013-02-21 09:02:00,27.0,-99.9,-100.00,ENE,72,0.0,1.0,-999,-99.99,,,-99.99,,2013-02-21 17:02:00,
2013-02-21 09:12:00,27.0,-99.9,-100.00,ENE,72,0.0,1.0,-999,-99.99,,,-99.99,,2013-02-21 17:12:00,
2013-02-21 10:02:00,29.0,-99.9,-100.00,ESE,106,1.0,2.0,-999,-99.99,,,-99.99,,2013-02-21 18:02:00,
2013-02-21 11:01:00,34.0,34.0,-100.00,East,89,1.0,3.0,100,-99.99,,,-99.99,,2013-02-21 19:01:00,
2013-02-21 11:11:00,34.0,34.0,-100.00,East,89,1.0,3.0,100,-99.99,,,-99.99,,2013-02-21 19:11:00,
2013-02-21 12:01:00,40.0,31.0,-100.00,NW,305,1.0,2.0,69,-99.99,,,-99.99,,2013-02-21 20:01:00,
2013-02-21 12:10:00,40.0,26.0,-100.00,NE,47,3.0,9.0,57,-99.99,,,-99.99,,2013-02-21 20:10:00,
2013-02-21 13:02:00,40.0,26.0,-100.00,NE,47,3.0,9.0,57,-99.99,,,-99.99,,2013-02-21 21:02:00,
2013-02-21 14:01:00,40.0,28.0,-100.00,SE,141,3.0,7.0,61,-99.99,,,-99.99,,2013-02-21 22:01:00,
2013-02-21 14:10:00,39.0,29.0,-100.00,SE,133,3.0,12.0,67,-99.99,,,-99.99,,2013-02-21 22:10:00,
2013-02-21 15:01:00,39.0,29.0,-100.00,SE,133,3.0,12.0,67,-99.99,,,-99.99,,2013-02-21 23:01:00,
2013-02-21 16:01:00,36.0,31.0,-100.00,SE,130,3.0,8.0,81,-99.99,,,-99.99,,2013-02-22 00:01:00,
2013-02-21 16:10:00,35.0,32.0,-100.00,ESE,107,1.0,3.0,88,-99.99,,,-99.99,,2013-02-22 00:10:00,
2013-02-21 17:01:00,35.0,32.0,-100.00,ESE,107,1.0,3.0,88,-99.99,,,-99.99,,2013-02-22 01:01:00,
2013-02-21 17:20:00,34.0,31.0,-100.00,South,169,0.0,1.0,88,-99.99,,,-99.99,,2013-02-22 01:20:00,
2013-02-21 18:02:00,34.0,31.0,-100.00,South,169,0.0,1.0,88,-99.99,,,-99.99,,2013-02-22 02:02:00,
2013-02-21 18:10:00,33.0,32.0,-100.00,SE,136,0.0,2.0,96,-99.99,,,-99.99,,2013-02-22 02:10:00,
2013-02-21 18:11:00,34.0,31.0,-100.00,South,169,0.0,1.0,88,-99.99,,,-99.99,,2013-02-22 02:11:00,
2013-02-21 19:01:00,33.0,32.0,-100.00,SE,136,0.0,2.0,96,-99.99,,,-99.99,,2013-02-22 03:01:00,
2013-02-21 20:01:00,31.0,31.0,-100.00,WNW,284,0.0,2.0,100,-99.99,,,-99.99,,2013-02-22 04:01:00,
2013-02-21 20:10:00,31.0,31.0,-100.00,SSE,161,0.0,1.0,100,-99.99,,,-99.99,,2013-02-22 04:10:00,
2013-02-21 20:11:00,31.0,31.0,-100.00,WNW,284,0.0,2.0,100,-99.99,,,-99.99,,2013-02-22 04:11:00,
2013-02-21 21:01:00,31.0,31.0,-100.00,SSE,161,0.0,1.0,100,-99.99,,,-99.99,,2013-02-22 05:01:00,
2013-02-21 22:02:00,30.0,-99.9,-100.00,North,-999,0.0,0.0,-999,-99.99,,,-99.99,,2013-02-22 06:02:00,
2013-02-21 22:12:00,30.0,-99.9,-100.00,North,-999,0.0,0.0,-999,-99.99,,,-99.99,,2013-02-22 06:12:00,
2013-02-21 23:01:00,29.0,-99.9,-100.00,SSW,212,0.0,1.0,-999,-99.99,,,-99.99,,2013-02-22 07:01:00,